Spring Mountain Youth Camp, Nevada Weather observations

Data are for 60 minute period ending at time listed.
 Day   Time   Solar   Ave.   Ave.  Ave.  Vector  Max.   Baro.   Total    
  of    of     Rad.   Air    Rel.  Wind   Wind   Wind  Press.  Precip.   
Year   Day            Temp.  Hum.  Speed  Dir.   Gust                    
2014   (PST)  Kw/m2    F      %     mph   deg.    mph    mb.     in.     
-------------------------------------------------------------------------
 208   14:00   0.10   65.0    57    3.1    23    11.5   796.8    0.06 
 208   15:00   0.23   64.1    59    2.4     1     5.4   796.5    0.00 
 208   16:00   0.12   64.2    56    4.3    16    16.4   796.4    0.00 
 208   17:00   0.01   58.2    68    3.3   279    12.1   796.4    0.01 
 208   18:00   0.01   60.8    54    3.6    27    12.6   796.3    0.00 
 208   19:00   0.00   60.8    53    3.6   264    15.5   796.3    0.01 
 208   20:00   0.00   60.4    56    7.5   158    27.8   796.8    0.01 
 208   21:00   0.00   53.6    86    5.7   161    18.4   797.6    0.06 
 208   22:00   0.00   55.1    77    2.6   256    11.5   797.1    0.05 
 208   23:00   0.00   58.6    65    3.1   101     6.4   797.0    0.00 
 209    0:00   0.00   58.6    63    2.4   124     7.7   797.0    0.00 
 209    1:00   0.00   57.8    67    3.4   130     7.0   796.8    0.00 
 209    2:00   0.00   58.0    64    3.5   142     6.9   796.8    0.00 
 209    3:00   0.00   57.4    65    4.6   100     9.0   796.9    0.00 
 209    4:00   0.00   53.8    82    2.1   129     5.9   796.8    0.04 
 209    5:00   0.00   54.8    78    2.1   112     4.2   796.7    0.00 
 209    6:00   0.02   55.3    76    5.2   142     8.3   797.0    0.02 
 209    7:00   0.14   54.8    88    4.6   158    10.1   797.3    0.02 
 209    8:00   0.36   59.3    78    7.8   162    12.3   797.5    0.00 
 209    9:00   0.35   61.0    73    8.6   160    15.7   797.7    0.00 
 209   10:00   0.47   61.2    74    7.3   144    16.4   797.8    0.00 
 209   11:00   0.07   56.8    76    4.4   186    15.3   797.9    0.00 
 209   12:00   0.30   60.5    71    2.0   187     6.5   797.8    0.01 
 209   13:00   0.28   60.4    78    3.6   164     8.6   797.5    0.07 

Return to Spring Mountain Youth Camp graphs page.


Western Regional Climate Center,wrcc@dri.edu